Time;durP1;ratioP1;P1;durP2;ratioP2;P2;SDS_P1;SDS_P2;PMS_P1;PMS_P2;Temp;Humidity;BMP_temperature;BMP_pressure;BME280_temperature;BME280_humidity;BME280_pressure;Samples;Min_cycle;Max_cycle;Signal;HPM_P1;HPM_P2
2021/09/12 00:00:44;;;;;;;;;;;19.90;99.90;;;;;;5121278;27;19942;-78
2021/09/12 00:03:10;;;;;;;;;;;19.90;99.90;;;;;;5129328;27;20036;-78
2021/09/12 00:05:36;;;;;;;;;;;19.80;99.90;;;;;;5117416;27;20265;-78
2021/09/12 00:08:02;;;;;;;;;;;20.00;99.90;;;;;;5112794;28;19938;-78
2021/09/12 00:10:28;;;;;;;;;;;20.10;99.90;;;;;;5120613;27;20258;-78
2021/09/12 00:12:53;;;;;;;;;;;20.20;99.90;;;;;;5126750;27;20377;-78
2021/09/12 00:15:19;;;;;;;;;;;20.20;99.90;;;;;;5130022;27;20331;-77
2021/09/12 00:17:46;;;;;;;;;;;20.20;99.90;;;;;;5094702;27;19912;-77
2021/09/12 00:20:11;;;;;;;;;;;20.20;99.90;;;;;;5095839;28;19998;-77
2021/09/12 00:22:37;;;;;;;;;;;20.10;99.90;;;;;;5135728;27;19935;-77
2021/09/12 00:25:04;;;;;;;;;;;20.10;99.90;;;;;;5129046;27;19927;-78
2021/09/12 00:27:30;;;;;;;;;;;20.10;99.90;;;;;;5130465;27;20019;-78
2021/09/12 00:29:56;;;;;;;;;;;20.10;99.90;;;;;;5126364;27;19915;-78
2021/09/12 00:32:22;;;;;;;;;;;20.00;99.90;;;;;;5135392;27;19918;-77
2021/09/12 00:34:48;;;;;;;;;;;20.10;99.90;;;;;;5131524;27;19912;-78
2021/09/12 00:37:14;;;;;;;;;;;20.20;99.90;;;;;;5134360;27;19915;-77
2021/09/12 00:39:39;;;;;;;;;;;20.30;99.90;;;;;;5107374;28;19923;-77
2021/09/12 00:42:05;;;;;;;;;;;20.30;99.90;;;;;;5134765;27;20387;-78
2021/09/12 00:44:31;;;;;;;;;;;20.30;99.90;;;;;;5119560;27;19908;-77
2021/09/12 00:47:05;;;;;;;;;;;20.40;99.90;;;;;;5118117;28;19915;-77
2021/09/12 00:49:31;;;;;;;;;;;20.50;99.90;;;;;;5128355;27;19969;-77
2021/09/12 00:51:57;;;;;;;;;;;20.60;99.90;;;;;;5121475;27;19911;-77
2021/09/12 00:54:23;;;;;;;;;;;20.70;99.90;;;;;;5145324;27;19922;-77
2021/09/12 00:56:49;;;;;;;;;;;20.70;99.90;;;;;;5141143;27;19998;-77
2021/09/12 00:59:16;;;;;;;;;;;20.70;99.90;;;;;;5132060;27;20461;-77
2021/09/12 01:01:42;;;;;;;;;;;20.70;99.90;;;;;;5120230;27;20292;-77
2021/09/12 01:04:08;;;;;;;;;;;20.80;99.90;;;;;;5114838;27;20302;-77
2021/09/12 01:06:33;;;;;;;;;;;20.90;99.90;;;;;;5115589;27;19912;-78
2021/09/12 01:08:59;;;;;;;;;;;20.90;99.90;;;;;;5131293;27;19920;-77
2021/09/12 01:11:25;;;;;;;;;;;21.00;99.90;;;;;;5133400;27;19922;-77
2021/09/12 01:13:50;;;;;;;;;;;20.90;99.90;;;;;;5137137;27;19968;-77
2021/09/12 01:16:17;;;;;;;;;;;20.90;99.90;;;;;;5091614;28;19972;-77
2021/09/12 01:18:43;;;;;;;;;;;21.00;99.90;;;;;;5117039;27;20421;-78
2021/09/12 01:21:13;;;;;;;;;;;21.00;99.90;;;;;;5108980;27;19984;-77
2021/09/12 01:23:39;;;;;;;;;;;20.90;99.90;;;;;;5123653;27;20357;-77
2021/09/12 01:26:05;;;;;;;;;;;20.90;99.90;;;;;;5131410;27;19917;-77
2021/09/12 01:28:31;;;;;;;;;;;20.90;99.90;;;;;;5119558;27;19938;-77
2021/09/12 01:31:00;;;;;;;;;;;20.80;99.90;;;;;;5104925;27;20338;-77
2021/09/12 01:33:26;;;;;;;;;;;20.70;99.90;;;;;;5108408;27;20028;-77
2021/09/12 01:35:51;;;;;;;;;;;20.80;99.90;;;;;;5108930;27;19911;-77
2021/09/12 01:38:17;;;;;;;;;;;20.80;99.90;;;;;;5102645;28;19908;-77
2021/09/12 01:40:43;;;;;;;;;;;20.80;99.90;;;;;;5119142;27;19966;-77
2021/09/12 01:43:08;;;;;;;;;;;20.80;99.90;;;;;;5122536;27;19912;-77
2021/09/12 01:45:34;;;;;;;;;;;20.80;99.90;;;;;;5121614;27;19911;-77
2021/09/12 01:48:00;;;;;;;;;;;20.80;99.90;;;;;;5122406;27;20385;-77
2021/09/12 01:50:28;;;;;;;;;;;20.80;99.90;;;;;;5116048;27;19925;-77
2021/09/12 01:52:54;;;;;;;;;;;20.80;99.90;;;;;;5115534;27;20007;-77
2021/09/12 01:55:20;;;;;;;;;;;20.80;99.90;;;;;;5124249;27;20020;-78
2021/09/12 01:57:46;;;;;;;;;;;20.80;99.90;;;;;;5097966;27;19951;-77
2021/09/12 02:00:12;;;;;;;;;;;20.80;99.90;;;;;;5112323;27;19912;-77
2021/09/12 02:02:44;;;;;;;;;;;20.80;99.90;;;;;;5114520;27;19919;-77
2021/09/12 02:05:12;;;;;;;;;;;20.70;99.90;;;;;;5119771;27;19922;-76
2021/09/12 02:07:38;;;;;;;;;;;20.60;99.90;;;;;;5107199;28;19915;-77
2021/09/12 02:10:04;;;;;;;;;;;20.60;99.90;;;;;;5115806;27;19980;-76
2021/09/12 02:12:29;;;;;;;;;;;20.50;99.90;;;;;;5112968;28;19916;-76
2021/09/12 02:14:55;;;;;;;;;;;20.50;99.90;;;;;;5114809;28;19954;-77
2021/09/12 02:17:23;;;;;;;;;;;20.50;99.90;;;;;;5110900;28;19912;-77
2021/09/12 02:19:51;;;;;;;;;;;20.50;99.90;;;;;;5118863;27;19922;-79
2021/09/12 02:22:17;;;;;;;;;;;20.50;99.90;;;;;;5113863;27;20283;-77
2021/09/12 02:24:43;;;;;;;;;;;20.40;99.90;;;;;;5106603;27;19998;-77
2021/09/12 02:27:09;;;;;;;;;;;20.50;99.90;;;;;;5114790;27;20277;-78
2021/09/12 02:29:34;;;;;;;;;;;20.50;99.90;;;;;;5112018;27;19916;-77
2021/09/12 02:32:00;;;;;;;;;;;20.50;99.90;;;;;;5114781;27;20221;-77
2021/09/12 02:34:26;;;;;;;;;;;20.50;99.90;;;;;;5101542;28;19916;-77
2021/09/12 02:36:51;;;;;;;;;;;20.40;99.90;;;;;;5122712;27;19916;-78
2021/09/12 02:39:17;;;;;;;;;;;20.40;99.90;;;;;;5099528;28;19912;-77
2021/09/12 02:41:43;;;;;;;;;;;20.40;99.90;;;;;;5102874;27;19912;-77
2021/09/12 02:44:08;;;;;;;;;;;20.40;99.90;;;;;;5104137;28;19918;-77
2021/09/12 02:46:34;;;;;;;;;;;20.40;99.90;;;;;;5125567;28;20032;-78
2021/09/12 02:49:00;;;;;;;;;;;20.40;99.90;;;;;;5099038;28;19949;-78
2021/09/12 02:51:25;;;;;;;;;;;20.40;99.90;;;;;;5119052;28;20381;-77
2021/09/12 02:53:51;;;;;;;;;;;20.40;99.90;;;;;;5125899;28;19912;-77
2021/09/12 02:56:17;;;;;;;;;;;20.50;99.90;;;;;;5129850;28;19918;-78
2021/09/12 02:58:42;;;;;;;;;;;20.50;99.90;;;;;;5122657;28;20312;-77
2021/09/12 03:01:08;;;;;;;;;;;20.40;99.90;;;;;;5122762;28;19918;-78
2021/09/12 03:03:34;;;;;;;;;;;20.40;99.90;;;;;;5127094;28;20331;-77
2021/09/12 03:06:00;;;;;;;;;;;20.40;99.90;;;;;;5125239;28;19923;-77
2021/09/12 03:08:26;;;;;;;;;;;20.40;99.90;;;;;;5120769;28;19919;-78
2021/09/12 03:10:51;;;;;;;;;;;20.40;99.90;;;;;;5127995;28;19965;-78
2021/09/12 03:13:17;;;;;;;;;;;20.40;99.90;;;;;;5135387;28;19990;-78
2021/09/12 03:15:43;;;;;;;;;;;20.30;99.90;;;;;;5102039;28;20294;-78
2021/09/12 03:18:08;;;;;;;;;;;20.30;99.90;;;;;;5122961;28;19932;-80
2021/09/12 03:20:42;;;;;;;;;;;20.30;99.90;;;;;;5114934;28;19918;-78
2021/09/12 03:23:07;;;;;;;;;;;20.30;99.90;;;;;;5117218;28;19915;-77
2021/09/12 03:25:33;;;;;;;;;;;20.30;99.90;;;;;;5118845;28;19923;-78
2021/09/12 03:27:58;;;;;;;;;;;20.30;99.90;;;;;;5118811;28;19963;-77
2021/09/12 03:30:27;;;;;;;;;;;20.20;99.90;;;;;;5109603;28;19911;-78
2021/09/12 03:32:58;;;;;;;;;;;20.20;99.90;;;;;;5125797;28;19912;-77
2021/09/12 03:35:24;;;;;;;;;;;20.10;99.90;;;;;;5118263;28;19911;-77
2021/09/12 03:37:50;;;;;;;;;;;20.00;99.90;;;;;;5104658;28;19920;-77
2021/09/12 03:40:16;;;;;;;;;;;20.00;99.90;;;;;;5120241;28;19912;-79
2021/09/12 03:42:41;;;;;;;;;;;19.90;99.90;;;;;;5135578;28;19911;-78
2021/09/12 03:45:10;;;;;;;;;;;19.90;99.90;;;;;;5125406;28;19912;-77
2021/09/12 03:47:36;;;;;;;;;;;19.90;99.90;;;;;;5130997;28;19915;-77
2021/09/12 03:50:02;;;;;;;;;;;19.80;99.90;;;;;;5130027;27;19917;-78
2021/09/12 03:52:28;;;;;;;;;;;19.80;99.90;;;;;;5108421;28;19912;-78
2021/09/12 03:54:53;;;;;;;;;;;19.70;99.90;;;;;;5127803;27;20766;-77
2021/09/12 03:57:20;;;;;;;;;;;19.70;99.90;;;;;;5125134;27;20211;-78
2021/09/12 03:59:46;;;;;;;;;;;19.70;99.90;;;;;;5134651;27;19915;-77
2021/09/12 04:02:12;;;;;;;;;;;19.70;99.90;;;;;;5114732;28;19922;-77
2021/09/12 04:04:37;;;;;;;;;;;19.70;99.90;;;;;;5115475;27;20435;-78
2021/09/12 04:07:03;;;;;;;;;;;19.80;99.90;;;;;;5094200;28;19912;-77
2021/09/12 04:09:32;;;;;;;;;;;19.70;99.90;;;;;;5104849;28;19927;-78
2021/09/12 04:11:57;;;;;;;;;;;19.70;99.90;;;;;;5129481;27;19911;-77
2021/09/12 04:14:23;;;;;;;;;;;19.80;99.90;;;;;;5111296;28;19911;-79
2021/09/12 04:16:49;;;;;;;;;;;19.80;99.90;;;;;;5122901;27;20431;-77
2021/09/12 04:19:14;;;;;;;;;;;19.80;99.90;;;;;;5132431;27;19939;-78
2021/09/12 04:21:45;;;;;;;;;;;19.80;99.90;;;;;;5123420;27;19916;-78
2021/09/12 04:24:13;;;;;;;;;;;19.90;99.90;;;;;;5133847;27;19935;-77
2021/09/12 04:26:39;;;;;;;;;;;19.90;99.90;;;;;;5122095;27;19988;-77
2021/09/12 04:29:05;;;;;;;;;;;19.90;99.90;;;;;;5124951;27;20353;-78
2021/09/12 04:31:31;;;;;;;;;;;19.90;99.90;;;;;;5103193;27;19916;-78
2021/09/12 04:33:57;;;;;;;;;;;19.90;99.90;;;;;;5121145;27;19942;-78
2021/09/12 04:36:23;;;;;;;;;;;19.80;99.90;;;;;;5120837;27;19916;-77
2021/09/12 04:38:48;;;;;;;;;;;19.80;99.90;;;;;;5127228;27;19911;-77
2021/09/12 04:41:14;;;;;;;;;;;19.80;99.90;;;;;;5129676;27;20004;-77
2021/09/12 04:43:40;;;;;;;;;;;19.80;99.90;;;;;;5132667;27;19938;-77
2021/09/12 04:46:05;;;;;;;;;;;19.70;99.90;;;;;;5110469;27;19915;-78
2021/09/12 04:48:31;;;;;;;;;;;19.60;99.90;;;;;;5092796;27;20054;-78
2021/09/12 04:50:57;;;;;;;;;;;19.60;99.90;;;;;;5129878;27;19908;-81
2021/09/12 04:53:32;;;;;;;;;;;19.60;99.90;;;;;;5126862;27;19911;-77
2021/09/12 04:55:57;;;;;;;;;;;19.60;99.90;;;;;;5099675;27;19995;-77
2021/09/12 04:58:23;;;;;;;;;;;19.60;99.90;;;;;;5131141;27;19939;-78
2021/09/12 05:00:48;;;;;;;;;;;19.70;99.90;;;;;;5122323;27;19915;-78
2021/09/12 05:03:14;;;;;;;;;;;19.60;99.90;;;;;;5132087;27;20300;-78
2021/09/12 05:05:40;;;;;;;;;;;19.60;99.90;;;;;;5114195;27;20650;-78
2021/09/12 05:08:05;;;;;;;;;;;19.60;99.90;;;;;;5128799;27;19930;-78
2021/09/12 05:10:31;;;;;;;;;;;19.70;99.90;;;;;;5114465;27;19919;-78
2021/09/12 05:12:57;;;;;;;;;;;19.70;99.90;;;;;;5120135;27;19911;-78
2021/09/12 05:15:22;;;;;;;;;;;19.70;99.90;;;;;;5108568;28;20281;-78
2021/09/12 05:17:48;;;;;;;;;;;19.70;99.90;;;;;;5135972;27;20263;-78
2021/09/12 05:20:14;;;;;;;;;;;19.70;99.90;;;;;;5121685;27;19922;-78
2021/09/12 05:22:39;;;;;;;;;;;19.60;99.90;;;;;;5112631;28;19915;-78
2021/09/12 05:25:05;;;;;;;;;;;19.70;99.90;;;;;;5120155;27;19913;-77
2021/09/12 05:27:31;;;;;;;;;;;19.70;99.90;;;;;;5126317;27;19977;-77
2021/09/12 05:29:56;;;;;;;;;;;19.80;99.90;;;;;;5108456;27;20004;-77
2021/09/12 05:32:22;;;;;;;;;;;19.80;99.90;;;;;;5129540;27;20005;-77
2021/09/12 05:34:48;;;;;;;;;;;20.00;99.90;;;;;;5131282;27;19916;-77
2021/09/12 05:37:14;;;;;;;;;;;20.00;99.90;;;;;;5122845;27;19915;-77
2021/09/12 05:39:39;;;;;;;;;;;20.30;99.90;;;;;;5125347;27;19912;-77
2021/09/12 05:42:05;;;;;;;;;;;20.50;99.90;;;;;;5138491;27;19908;-77
2021/09/12 05:44:31;;;;;;;;;;;20.60;99.90;;;;;;5103332;28;19973;-77
2021/09/12 05:46:57;;;;;;;;;;;20.70;99.90;;;;;;5105761;27;19907;-77
2021/09/12 05:49:22;;;;;;;;;;;20.80;99.90;;;;;;5117903;27;19911;-78
2021/09/12 05:51:48;;;;;;;;;;;20.80;99.90;;;;;;5106812;28;19947;-79
2021/09/12 05:54:13;;;;;;;;;;;20.90;99.90;;;;;;5122598;27;20469;-78
2021/09/12 05:56:39;;;;;;;;;;;21.00;99.90;;;;;;5124760;27;19923;-78
2021/09/12 05:59:05;;;;;;;;;;;21.10;99.90;;;;;;5134542;27;19911;-78
2021/09/12 06:01:30;;;;;;;;;;;21.10;99.90;;;;;;5128235;27;19911;-78
2021/09/12 06:03:56;;;;;;;;;;;21.20;99.90;;;;;;5137930;27;19916;-78
2021/09/12 06:06:22;;;;;;;;;;;21.30;99.90;;;;;;5093981;28;19991;-78
2021/09/12 06:08:47;;;;;;;;;;;21.30;99.90;;;;;;5128626;27;19984;-78
2021/09/12 06:11:13;;;;;;;;;;;21.30;99.90;;;;;;5120798;28;19912;-78
2021/09/12 06:13:39;;;;;;;;;;;21.30;99.90;;;;;;5120353;28;19947;-78
2021/09/12 06:16:05;;;;;;;;;;;21.30;99.90;;;;;;5102243;28;20017;-77
2021/09/12 06:18:30;;;;;;;;;;;21.40;99.90;;;;;;5119035;28;20014;-80
2021/09/12 06:20:57;;;;;;;;;;;21.50;99.90;;;;;;5110110;28;19907;-79
2021/09/12 06:23:22;;;;;;;;;;;21.50;99.90;;;;;;5129910;28;19923;-79
2021/09/12 06:25:48;;;;;;;;;;;21.60;99.90;;;;;;5129395;28;19907;-80
2021/09/12 06:28:14;;;;;;;;;;;21.60;99.90;;;;;;5128088;28;19911;-80
2021/09/12 06:30:39;;;;;;;;;;;21.70;99.90;;;;;;5122230;27;19919;-80
2021/09/12 06:33:05;;;;;;;;;;;21.80;99.90;;;;;;5118114;27;19912;-80
2021/09/12 06:35:30;;;;;;;;;;;21.90;99.90;;;;;;5115439;28;19907;-79
2021/09/12 06:37:56;;;;;;;;;;;22.00;99.90;;;;;;5121251;28;19912;-79
2021/09/12 06:40:23;;;;;;;;;;;22.00;99.90;;;;;;5118551;28;19916;-78
2021/09/12 06:42:50;;;;;;;;;;;22.10;99.90;;;;;;5117962;28;19969;-79
2021/09/12 06:45:15;;;;;;;;;;;22.20;99.90;;;;;;5116956;28;20083;-79
2021/09/12 06:47:41;;;;;;;;;;;22.30;99.90;;;;;;5100927;28;19915;-79
2021/09/12 06:50:07;;;;;;;;;;;22.40;99.90;;;;;;5117577;28;19964;-79
2021/09/12 06:52:34;;;;;;;;;;;22.60;99.90;;;;;;5114547;28;19915;-79
2021/09/12 06:55:00;;;;;;;;;;;22.70;99.90;;;;;;5115076;28;19916;-79
2021/09/12 06:57:25;;;;;;;;;;;22.80;99.90;;;;;;5116922;28;19923;-79
2021/09/12 06:59:51;;;;;;;;;;;22.80;99.90;;;;;;5117914;28;19911;-78
2021/09/12 07:02:16;;;;;;;;;;;22.90;99.90;;;;;;5102829;28;20082;-79
2021/09/12 07:04:42;;;;;;;;;;;22.90;99.90;;;;;;5122124;28;19919;-79
2021/09/12 07:07:08;;;;;;;;;;;23.00;99.90;;;;;;5119258;28;19947;-79
2021/09/12 07:09:36;;;;;;;;;;;23.10;99.90;;;;;;5120662;28;20002;-81
2021/09/12 07:12:02;;;;;;;;;;;23.20;99.90;;;;;;5121594;28;19964;-80
2021/09/12 07:14:28;;;;;;;;;;;23.40;99.90;;;;;;5102643;28;19982;-79
2021/09/12 07:16:53;;;;;;;;;;;23.80;99.90;;;;;;5117834;28;19912;-79
2021/09/12 07:19:19;;;;;;;;;;;24.00;99.90;;;;;;5122145;28;19934;-78
2021/09/12 07:21:45;;;;;;;;;;;23.90;99.90;;;;;;5097862;28;20365;-80
2021/09/12 07:24:11;;;;;;;;;;;24.10;99.90;;;;;;5110389;28;19923;-78
2021/09/12 07:26:37;;;;;;;;;;;24.10;99.90;;;;;;5112522;28;19912;-79
2021/09/12 07:29:02;;;;;;;;;;;24.00;99.90;;;;;;5112815;28;19916;-78
2021/09/12 07:31:28;;;;;;;;;;;24.00;99.90;;;;;;5119660;27;19912;-80
2021/09/12 07:33:53;;;;;;;;;;;24.10;99.90;;;;;;5109152;28;19919;-79
2021/09/12 07:36:19;;;;;;;;;;;24.20;99.90;;;;;;5097558;28;19917;-80
2021/09/12 07:38:45;;;;;;;;;;;24.20;99.90;;;;;;5099161;28;19928;-78
2021/09/12 07:41:12;;;;;;;;;;;24.30;99.90;;;;;;5099453;28;19912;-80
2021/09/12 07:43:37;;;;;;;;;;;24.50;99.90;;;;;;5116123;28;19961;-79
2021/09/12 07:46:03;;;;;;;;;;;24.70;99.90;;;;;;5119555;27;20034;-79
2021/09/12 07:48:29;;;;;;;;;;;24.80;99.90;;;;;;5142521;27;19978;-79
2021/09/12 07:50:54;;;;;;;;;;;25.00;99.90;;;;;;5127007;27;19919;-80
2021/09/12 07:53:20;;;;;;;;;;;25.10;99.90;;;;;;5119456;27;19937;-78
2021/09/12 07:55:46;;;;;;;;;;;25.20;99.90;;;;;;5135398;27;19923;-78
2021/09/12 07:58:11;;;;;;;;;;;25.20;99.90;;;;;;5117254;28;19896;-77
2021/09/12 08:00:37;;;;;;;;;;;25.30;99.90;;;;;;5120897;27;20041;-78
2021/09/12 08:03:03;;;;;;;;;;;25.30;99.90;;;;;;5141192;27;19911;-76
2021/09/12 08:05:29;;;;;;;;;;;25.40;99.90;;;;;;5138666;27;19904;-77
2021/09/12 08:07:54;;;;;;;;;;;25.50;99.90;;;;;;5121062;28;19904;-80
2021/09/12 08:10:20;;;;;;;;;;;25.60;99.90;;;;;;5100684;28;19916;-80
2021/09/12 08:12:46;;;;;;;;;;;25.60;99.90;;;;;;5117131;28;19920;-81
2021/09/12 08:15:12;;;;;;;;;;;25.60;99.90;;;;;;5104226;28;19924;-79
2021/09/12 08:17:37;;;;;;;;;;;25.60;99.90;;;;;;5118311;28;19892;-81
2021/09/12 08:20:04;;;;;;;;;;;25.60;99.90;;;;;;5116947;28;19912;-78
2021/09/12 08:22:30;;;;;;;;;;;25.80;99.90;;;;;;5100802;28;19920;-79
2021/09/12 08:24:55;;;;;;;;;;;25.80;99.90;;;;;;5127459;28;19912;-80
2021/09/12 08:27:21;;;;;;;;;;;25.90;99.90;;;;;;5130451;28;19920;-79
2021/09/12 08:29:47;;;;;;;;;;;26.00;99.90;;;;;;5113367;28;19912;-79
2021/09/12 08:32:12;;;;;;;;;;;26.00;99.90;;;;;;5117048;27;20048;-78
2021/09/12 08:34:38;;;;;;;;;;;26.10;99.90;;;;;;5138513;27;19979;-79
2021/09/12 08:37:04;;;;;;;;;;;26.20;99.90;;;;;;5133298;28;19926;-78
2021/09/12 08:39:30;;;;;;;;;;;26.20;99.90;;;;;;5114868;28;19916;-79
2021/09/12 08:41:56;;;;;;;;;;;26.30;99.90;;;;;;5122629;28;19919;-78
2021/09/12 08:44:21;;;;;;;;;;;26.30;99.90;;;;;;5134525;28;19965;-79
2021/09/12 08:46:47;;;;;;;;;;;26.40;99.90;;;;;;5133694;28;19915;-78
2021/09/12 08:49:14;;;;;;;;;;;26.40;99.90;;;;;;5113787;28;19916;-80
2021/09/12 08:51:39;;;;;;;;;;;26.40;99.90;;;;;;5133505;28;19943;-81
2021/09/12 08:54:05;;;;;;;;;;;26.40;99.90;;;;;;5134637;28;19908;-79
2021/09/12 08:56:31;;;;;;;;;;;26.60;99.90;;;;;;5120023;28;20421;-81
2021/09/12 08:58:57;;;;;;;;;;;26.70;99.90;;;;;;5091195;28;19943;-78
2021/09/12 09:01:30;;;;;;;;;;;26.80;99.90;;;;;;5110614;28;19908;-78
2021/09/12 09:03:58;;;;;;;;;;;26.80;99.90;;;;;;5100482;28;19926;-78
2021/09/12 09:06:24;;;;;;;;;;;26.80;99.90;;;;;;5130983;28;19935;-80
2021/09/12 09:08:50;;;;;;;;;;;26.80;99.90;;;;;;5129684;28;19916;-79
2021/09/12 09:11:25;;;;;;;;;;;26.80;99.90;;;;;;5130470;28;19915;-80
2021/09/12 09:13:51;;;;;;;;;;;26.70;99.90;;;;;;5128087;28;19912;-80
2021/09/12 09:16:27;;;;;;;;;;;26.70;99.90;;;;;;5125667;28;19915;-80
2021/09/12 09:19:03;;;;;;;;;;;26.80;99.90;;;;;;5121732;28;19931;-80
2021/09/12 09:21:31;;;;;;;;;;;26.80;99.90;;;;;;5102852;28;19933;-80
2021/09/12 09:24:16;;;;;;;;;;;26.80;99.90;;;;;;5114136;28;19958;-80
2021/09/12 09:27:03;;;;;;;;;;;27.00;99.90;;;;;;5108096;28;19969;-78
2021/09/12 09:29:29;;;;;;;;;;;27.20;99.90;;;;;;5106419;28;19912;-77
2021/09/12 09:32:04;;;;;;;;;;;27.20;99.90;;;;;;5106755;28;19916;-78
2021/09/12 09:34:30;;;;;;;;;;;27.20;99.90;;;;;;5123283;27;19966;-78
2021/09/12 09:37:06;;;;;;;;;;;27.20;99.90;;;;;;5109532;28;19955;-79
2021/09/12 09:39:35;;;;;;;;;;;27.20;99.90;;;;;;5123952;28;19912;-78
2021/09/12 09:42:01;;;;;;;;;;;27.40;99.90;;;;;;5110827;28;19974;-78
2021/09/12 09:44:27;;;;;;;;;;;27.30;99.90;;;;;;5111587;28;19908;-78
2021/09/12 09:46:53;;;;;;;;;;;27.30;99.90;;;;;;5110608;28;19908;-79
2021/09/12 09:49:20;;;;;;;;;;;27.50;99.90;;;;;;5107198;28;19977;-78
2021/09/12 09:51:47;;;;;;;;;;;27.70;99.50;;;;;;5113268;28;19912;-77
2021/09/12 09:54:12;;;;;;;;;;;27.60;99.20;;;;;;5111985;28;19908;-79
2021/09/12 09:56:38;;;;;;;;;;;27.70;98.70;;;;;;5112802;28;19994;-77
2021/09/12 09:59:04;;;;;;;;;;;27.70;98.80;;;;;;5112360;28;19919;-76
2021/09/12 10:01:30;;;;;;;;;;;27.70;98.60;;;;;;5113069;28;19916;-78
2021/09/12 10:03:56;;;;;;;;;;;27.70;97.60;;;;;;5130932;27;19900;-80
2021/09/12 10:06:22;;;;;;;;;;;27.70;98.00;;;;;;5130464;28;19912;-79
2021/09/12 10:08:47;;;;;;;;;;;27.70;98.00;;;;;;5131237;28;19923;-78
2021/09/12 10:11:14;;;;;;;;;;;27.80;97.90;;;;;;5131262;28;19908;-78
2021/09/12 10:13:40;;;;;;;;;;;27.90;97.30;;;;;;5130597;28;19918;-80
2021/09/12 10:16:07;;;;;;;;;;;27.90;97.10;;;;;;5111119;28;19974;-79
2021/09/12 10:18:32;;;;;;;;;;;27.90;97.30;;;;;;5125425;28;19931;-78
2021/09/12 10:21:18;;;;;;;;;;;28.00;96.60;;;;;;5111199;28;19953;-80
2021/09/12 10:23:55;;;;;;;;;;;28.00;96.60;;;;;;5110366;28;19915;-79
2021/09/12 10:26:31;;;;;;;;;;;28.10;96.20;;;;;;5107981;28;19927;-77
2021/09/12 10:28:56;;;;;;;;;;;28.10;96.40;;;;;;5098121;28;20344;-77
2021/09/12 10:31:30;;;;;;;;;;;28.10;95.70;;;;;;5123176;28;19946;-78
2021/09/12 10:34:03;;;;;;;;;;;28.10;95.80;;;;;;5099689;28;19916;-76
2021/09/12 10:36:30;;;;;;;;;;;28.10;96.10;;;;;;5127124;28;19920;-80
2021/09/12 10:38:56;;;;;;;;;;;28.20;96.30;;;;;;5113664;28;19915;-77
2021/09/12 10:41:22;;;;;;;;;;;28.30;94.40;;;;;;5120082;28;20003;-80
2021/09/12 10:44:02;;;;;;;;;;;28.30;94.20;;;;;;5106435;28;19911;-77
2021/09/12 10:46:30;;;;;;;;;;;28.60;94.10;;;;;;5129668;28;20442;-79
2021/09/12 10:49:03;;;;;;;;;;;28.50;94.30;;;;;;5111545;28;19916;-78
2021/09/12 10:51:33;;;;;;;;;;;28.50;94.80;;;;;;5102188;28;20142;-80
2021/09/12 10:54:10;;;;;;;;;;;28.50;95.00;;;;;;5132539;28;19930;-79
2021/09/12 10:56:36;;;;;;;;;;;28.70;94.30;;;;;;5127718;28;19912;-79
2021/09/12 10:59:01;;;;;;;;;;;28.60;94.50;;;;;;5134659;28;19907;-79
2021/09/12 11:01:29;;;;;;;;;;;28.60;94.00;;;;;;5125391;28;19934;-79
2021/09/12 11:04:01;;;;;;;;;;;28.80;93.50;;;;;;5125997;27;19989;-79
2021/09/12 11:06:27;;;;;;;;;;;28.70;93.30;;;;;;5142556;27;19916;-80
2021/09/12 11:08:53;;;;;;;;;;;28.80;93.10;;;;;;5133789;28;19911;-79
2021/09/12 11:11:19;;;;;;;;;;;28.90;93.10;;;;;;5133131;28;19908;-79
2021/09/12 11:13:45;;;;;;;;;;;29.10;93.10;;;;;;5134761;28;19938;-79
2021/09/12 11:16:12;;;;;;;;;;;29.20;94.30;;;;;;5134211;28;19908;-78
2021/09/12 11:18:41;;;;;;;;;;;29.00;96.10;;;;;;5128037;28;20111;-79
2021/09/12 11:21:07;;;;;;;;;;;28.90;96.20;;;;;;5134158;28;19918;-79
2021/09/12 11:23:35;;;;;;;;;;;28.80;95.90;;;;;;5115419;28;19935;-80
2021/09/12 11:26:01;;;;;;;;;;;28.80;95.80;;;;;;5131076;28;19969;-79
2021/09/12 11:28:28;;;;;;;;;;;28.90;95.70;;;;;;5135137;28;19910;-77
2021/09/12 11:30:54;;;;;;;;;;;29.00;95.40;;;;;;5109381;28;20011;-80
2021/09/12 11:33:20;;;;;;;;;;;29.10;95.20;;;;;;5113777;28;19942;-79
2021/09/12 11:35:58;;;;;;;;;;;29.10;94.60;;;;;;5129398;27;19912;-78
2021/09/12 11:38:26;;;;;;;;;;;29.10;95.20;;;;;;5132626;28;19999;-80
2021/09/12 11:40:55;;;;;;;;;;;29.10;95.50;;;;;;5111948;28;19932;-79
2021/09/12 11:43:21;;;;;;;;;;;29.00;96.20;;;;;;5098412;28;19975;-79
2021/09/12 11:45:48;;;;;;;;;;;28.80;96.30;;;;;;5118386;28;19916;-77
2021/09/12 11:48:15;;;;;;;;;;;28.70;96.00;;;;;;5128542;28;19920;-80
2021/09/12 11:50:40;;;;;;;;;;;28.60;96.40;;;;;;5134237;28;20499;-78
2021/09/12 11:53:10;;;;;;;;;;;28.60;97.70;;;;;;5133621;28;19912;-77
2021/09/12 11:55:40;;;;;;;;;;;28.70;97.10;;;;;;5131431;28;19916;-78
2021/09/12 11:58:07;;;;;;;;;;;28.60;96.90;;;;;;5114102;28;20062;-78
2021/09/12 12:00:36;;;;;;;;;;;28.60;96.70;;;;;;5113832;28;20340;-78
2021/09/12 12:03:02;;;;;;;;;;;28.60;96.60;;;;;;5115486;28;19970;-79
2021/09/12 12:05:30;;;;;;;;;;;28.60;97.00;;;;;;5112296;28;19916;-78
2021/09/12 12:08:01;;;;;;;;;;;28.60;97.60;;;;;;5122842;28;19912;-78
2021/09/12 12:10:30;;;;;;;;;;;28.70;98.30;;;;;;5121282;28;19919;-78
2021/09/12 12:12:56;;;;;;;;;;;28.60;98.00;;;;;;5123226;28;19912;-79
2021/09/12 12:15:35;;;;;;;;;;;28.60;99.10;;;;;;5124344;27;19908;-79
2021/09/12 12:18:07;;;;;;;;;;;28.60;97.00;;;;;;5127682;27;19900;-79
2021/09/12 12:20:33;;;;;;;;;;;28.60;99.20;;;;;;5108526;28;19912;-78
2021/09/12 12:23:14;;;;;;;;;;;28.60;99.50;;;;;;5114811;28;20214;-78
2021/09/12 12:25:40;;;;;;;;;;;28.50;99.40;;;;;;5116027;28;19947;-78
2021/09/12 12:28:25;;;;;;;;;;;28.30;99.80;;;;;;5115643;28;19988;-79
2021/09/12 12:31:10;;;;;;;;;;;28.30;99.40;;;;;;5143098;27;19896;-82
2021/09/12 12:33:40;;;;;;;;;;;28.40;98.70;;;;;;5121278;27;19920;-78
2021/09/12 12:36:10;;;;;;;;;;;28.40;98.20;;;;;;5131229;27;20147;-79
2021/09/12 12:38:36;;;;;;;;;;;28.30;98.50;;;;;;5124057;27;19950;-78
2021/09/12 12:41:05;;;;;;;;;;;28.40;98.80;;;;;;5135639;28;19896;-77
2021/09/12 12:43:30;;;;;;;;;;;28.30;98.50;;;;;;5121877;28;19916;-78
2021/09/12 12:45:56;;;;;;;;;;;28.30;98.90;;;;;;5134988;28;19919;-79
2021/09/12 12:48:22;;;;;;;;;;;28.10;99.90;;;;;;5127297;27;19916;-80
2021/09/12 12:50:50;;;;;;;;;;;27.80;99.90;;;;;;5149753;27;19974;-78
2021/09/12 12:53:29;;;;;;;;;;;27.80;99.90;;;;;;5137574;27;19927;-79
2021/09/12 12:55:57;;;;;;;;;;;27.90;99.90;;;;;;5115139;28;19920;-77
2021/09/12 12:58:26;;;;;;;;;;;28.00;99.90;;;;;;5116416;28;19967;-79
2021/09/12 13:00:53;;;;;;;;;;;28.20;99.90;;;;;;5135642;28;19957;-78
2021/09/12 13:03:19;;;;;;;;;;;28.20;99.90;;;;;;5134890;28;19935;-83
2021/09/12 13:05:45;;;;;;;;;;;28.00;99.90;;;;;;5134893;28;19915;-76
2021/09/12 13:08:12;;;;;;;;;;;27.80;99.90;;;;;;5130873;28;19916;-79
2021/09/12 13:10:38;;;;;;;;;;;27.60;99.90;;;;;;5132081;28;19933;-77
2021/09/12 13:13:04;;;;;;;;;;;27.50;99.90;;;;;;5131044;27;19900;-78
2021/09/12 13:15:30;;;;;;;;;;;27.50;99.90;;;;;;5130625;28;19908;-77
2021/09/12 13:17:56;;;;;;;;;;;27.40;99.90;;;;;;5126242;28;19912;-78
2021/09/12 13:20:21;;;;;;;;;;;27.30;99.90;;;;;;5131646;28;19918;-78
2021/09/12 13:22:47;;;;;;;;;;;27.20;99.90;;;;;;5132011;28;19912;-76
2021/09/12 13:25:13;;;;;;;;;;;27.20;99.90;;;;;;5133793;28;19942;-78
2021/09/12 13:27:38;;;;;;;;;;;27.30;99.90;;;;;;5134342;28;19939;-78
2021/09/12 13:30:05;;;;;;;;;;;27.40;99.90;;;;;;5134692;28;19911;-78
2021/09/12 13:32:30;;;;;;;;;;;27.50;99.90;;;;;;5132367;28;20353;-77
2021/09/12 13:34:56;;;;;;;;;;;27.50;99.90;;;;;;5129920;28;19937;-78
2021/09/12 13:37:21;;;;;;;;;;;27.50;99.90;;;;;;5127151;28;19916;-78
2021/09/12 13:39:47;;;;;;;;;;;27.50;99.90;;;;;;5107982;28;19912;-81
2021/09/12 13:42:13;;;;;;;;;;;27.50;99.90;;;;;;5120421;28;20018;-78
2021/09/12 13:44:38;;;;;;;;;;;27.50;99.90;;;;;;5107008;28;19943;-78
2021/09/12 13:47:04;;;;;;;;;;;27.50;99.90;;;;;;5125765;28;19908;-78
2021/09/12 13:49:30;;;;;;;;;;;27.50;99.90;;;;;;5126104;28;20437;-77
2021/09/12 13:51:55;;;;;;;;;;;27.50;99.90;;;;;;5106497;28;19915;-81
2021/09/12 13:54:21;;;;;;;;;;;27.50;99.90;;;;;;5102942;28;19923;-78
2021/09/12 13:56:46;;;;;;;;;;;27.40;99.90;;;;;;5125968;28;20360;-77
2021/09/12 13:59:12;;;;;;;;;;;27.30;99.90;;;;;;5116738;28;19912;-78
2021/09/12 14:01:38;;;;;;;;;;;27.30;99.90;;;;;;5110331;28;19911;-77
2021/09/12 14:04:04;;;;;;;;;;;27.40;99.90;;;;;;5106077;28;19951;-78
2021/09/12 14:06:30;;;;;;;;;;;27.50;99.90;;;;;;5107797;28;19916;-75
2021/09/12 14:08:56;;;;;;;;;;;27.50;99.90;;;;;;5118133;28;19970;-77
2021/09/12 14:11:21;;;;;;;;;;;27.60;99.90;;;;;;5111009;28;19919;-79
2021/09/12 14:13:49;;;;;;;;;;;27.60;99.90;;;;;;5133869;27;20025;-76